Houston, Texas
Traffic Map
Current Weather Conditions
Houston, Texas
Clear
Clear
81°
Feels Like: 81°
Wind Chill: 81° Ceiling: Unl
Heat Index: 81° Visibility: 10mi
Dew Point: 57° Wind: 0mph
Humidity: 45% Direction: ° ()
Pressure: 30.01in Gusts: 0mph
Raw Report DataKMCJ 201815Z AUTO 00000KT 10SM CLR 27/14 A3001 RMK AO1
Traffic Incident Summary
Active as of:
Severity:
Category:
InformationThere was an issue retrieving the traffic information for this location. Please try a different location or try again shortly.
Advertisements
Track Severe Weather on mobile